createdAt,value
2023-09-08T00:03:57.035Z,16.19
2023-09-08T00:08:58.974Z,16.11
2023-09-08T00:14:01.006Z,16.07
2023-09-08T00:19:02.944Z,16.01
2023-09-08T00:24:08.127Z,15.93
2023-09-08T00:29:10.138Z,15.74
2023-09-08T00:34:12.250Z,15.66
2023-09-08T00:39:14.291Z,15.69
2023-09-08T00:44:16.494Z,15.63
2023-09-08T00:49:18.681Z,15.46
2023-09-08T00:54:20.659Z,15.19
2023-09-08T00:59:22.600Z,15.26
2023-09-08T01:04:24.731Z,15.33
2023-09-08T01:09:27.813Z,15.27
2023-09-08T01:14:30.690Z,15.08
2023-09-08T01:19:32.630Z,15.06
2023-09-08T01:24:59.436Z,15.01
2023-09-08T01:30:06.512Z,15.07
2023-09-08T01:35:09.050Z,15.07
2023-09-08T01:40:11.874Z,15.08
2023-09-08T01:45:13.798Z,15.01
2023-09-08T01:50:22.423Z,14.95
2023-09-08T01:55:24.333Z,14.90
2023-09-08T02:00:26.349Z,14.89
2023-09-08T02:05:28.770Z,14.90
2023-09-08T02:10:30.802Z,14.73
2023-09-08T02:15:35.801Z,14.66
2023-09-08T02:20:37.812Z,14.64
2023-09-08T02:25:39.680Z,14.62
2023-09-08T02:30:41.652Z,14.51
2023-09-08T02:35:44.564Z,14.46
2023-09-08T02:40:47.434Z,14.52
2023-09-08T02:45:49.603Z,14.50
2023-09-08T02:50:54.872Z,14.15
2023-09-08T02:55:57.517Z,14.17
2023-09-08T03:00:59.387Z,14.30
2023-09-08T03:06:04.377Z,14.29
2023-09-08T03:11:07.435Z,14.20
2023-09-08T03:16:10.026Z,14.11
2023-09-08T03:21:15.675Z,14.15
2023-09-08T03:26:17.549Z,14.04
2023-09-08T03:31:19.649Z,14.05
2023-09-08T03:36:21.750Z,13.93
2023-09-08T03:41:23.751Z,13.94
2023-09-08T03:46:26.620Z,13.89
2023-09-08T03:51:29.265Z,13.51
2023-09-08T03:56:31.534Z,13.25
2023-09-08T04:01:33.649Z,13.42
2023-09-08T04:06:35.601Z,13.58
2023-09-08T04:11:37.644Z,13.56
2023-09-08T04:16:39.637Z,13.61
2023-09-08T04:21:42.411Z,13.61
2023-09-08T04:26:44.304Z,13.38
2023-09-08T04:31:46.707Z,13.14
2023-09-08T04:36:48.872Z,13.25
2023-09-08T04:41:50.837Z,13.39
2023-09-08T04:46:53.833Z,13.42
2023-09-08T04:51:56.067Z,13.41
2023-09-08T04:57:11.631Z,13.34
2023-09-08T05:02:20.975Z,13.09
2023-09-08T05:07:23.196Z,13.16
2023-09-08T05:12:25.922Z,13.21
2023-09-08T05:17:28.172Z,13.05
2023-09-08T05:22:30.248Z,13.00
2023-09-08T05:27:33.171Z,13.26
2023-09-08T05:32:35.369Z,13.42
2023-09-08T05:37:37.606Z,13.66
2023-09-08T05:42:39.569Z,13.81
2023-09-08T05:47:41.683Z,13.94
2023-09-08T05:52:44.695Z,14.06
2023-09-08T05:57:47.532Z,14.12
2023-09-08T06:02:49.714Z,14.17
2023-09-08T06:08:05.887Z,14.29
2023-09-08T06:13:11.435Z,14.46
2023-09-08T06:18:14.960Z,14.55
2023-09-08T06:23:21.534Z,14.68
2023-09-08T06:28:24.908Z,14.82
2023-09-08T06:33:27.241Z,14.97
2023-09-08T06:38:32.778Z,15.05
2023-09-08T06:43:36.978Z,15.18
2023-09-08T06:48:44.400Z,15.34
2023-09-08T06:53:56.165Z,15.49
2023-09-08T06:59:01.464Z,15.60
2023-09-08T07:04:04.903Z,15.80
2023-09-08T07:09:07.788Z,15.99
2023-09-08T07:14:09.968Z,16.19
2023-09-08T07:19:12.471Z,16.38
2023-09-08T07:24:15.364Z,16.57
2023-09-08T07:29:18.883Z,16.72
2023-09-08T07:34:21.387Z,16.97
2023-09-08T07:39:23.484Z,17.55
2023-09-08T07:44:26.085Z,18.50
2023-09-08T07:49:28.445Z,19.11
2023-09-08T07:54:30.689Z,19.90
2023-09-08T07:59:58.089Z,20.66
2023-09-08T08:05:00.212Z,20.83
2023-09-08T08:10:02.356Z,21.38
2023-09-08T08:15:05.832Z,21.44
2023-09-08T08:20:10.602Z,21.79
2023-09-08T08:25:16.996Z,22.32
2023-09-08T08:30:19.288Z,22.46
2023-09-08T08:35:21.996Z,22.64
2023-09-08T08:40:28.262Z,22.54
2023-09-08T08:45:31.578Z,22.68
2023-09-08T08:50:34.122Z,22.99
2023-09-08T08:55:39.365Z,22.88
2023-09-08T09:00:42.167Z,23.22
2023-09-08T09:05:48.399Z,23.39
2023-09-08T09:10:52.978Z,23.83
2023-09-08T09:16:01.069Z,24.06
2023-09-08T09:21:03.890Z,24.34
2023-09-08T09:26:06.090Z,24.69
2023-09-08T09:31:08.422Z,24.82
2023-09-08T09:36:10.590Z,25.00
2023-09-08T09:41:13.467Z,24.93
2023-09-08T09:46:16.820Z,25.20
2023-09-08T09:51:21.046Z,25.18
2023-09-08T09:56:25.071Z,25.35
2023-09-08T10:01:28.158Z,25.57
2023-09-08T10:06:33.252Z,25.55
2023-09-08T10:11:40.581Z,25.59
2023-09-08T10:16:45.714Z,25.52
2023-09-08T10:21:49.858Z,25.73
2023-09-08T10:27:01.814Z,26.01
2023-09-08T10:32:05.362Z,26.02
2023-09-08T10:37:23.046Z,26.36
2023-09-08T10:42:28.543Z,26.54
2023-09-08T10:47:38.046Z,26.64
2023-09-08T10:52:40.253Z,26.26
2023-09-08T10:57:46.742Z,26.22
2023-09-08T11:02:52.239Z,26.43
2023-09-08T11:07:55.161Z,26.46
2023-09-08T11:12:57.301Z,26.43
2023-09-08T11:18:06.453Z,26.49
2023-09-08T11:23:08.731Z,26.63
2023-09-08T11:28:11.163Z,26.69
2023-09-08T11:33:28.237Z,26.87
2023-09-08T11:38:31.177Z,26.93
2023-09-08T11:43:36.069Z,26.91
2023-09-08T11:48:38.900Z,27.04
2023-09-08T11:53:42.455Z,27.17
2023-09-08T11:58:45.794Z,27.41
2023-09-08T12:03:55.404Z,27.42
2023-09-08T12:09:04.106Z,27.28
2023-09-08T12:14:10.957Z,27.46
2023-09-08T12:19:32.626Z,27.60
2023-09-08T12:24:58.086Z,27.92
2023-09-08T12:30:02.141Z,27.79
2023-09-08T12:35:05.789Z,28.05
2023-09-08T12:40:08.703Z,28.13
2023-09-08T12:45:11.039Z,28.22
2023-09-08T12:50:14.581Z,28.44
2023-09-08T12:55:17.074Z,28.66
2023-09-08T13:00:19.247Z,28.84
2023-09-08T13:05:21.569Z,28.82
2023-09-08T13:10:23.764Z,29.11
2023-09-08T13:15:25.895Z,29.15
2023-09-08T13:20:28.026Z,29.28
2023-09-08T13:25:31.090Z,29.39
2023-09-08T13:30:33.315Z,29.44
2023-09-08T13:35:35.452Z,29.48
2023-09-08T13:40:37.592Z,29.46
2023-09-08T13:45:39.741Z,29.60
2023-09-08T13:50:44.343Z,29.59
2023-09-08T13:55:50.511Z,29.73
2023-09-08T14:00:54.331Z,29.66
2023-09-08T14:06:02.988Z,29.76
2023-09-08T14:11:15.354Z,29.84
2023-09-08T14:16:21.459Z,29.82
2023-09-08T14:21:23.610Z,29.89
2023-09-08T14:26:26.928Z,29.85
2023-09-08T14:31:29.129Z,29.84
2023-09-08T14:36:31.328Z,29.99
2023-09-08T14:41:33.562Z,30.09
2023-09-08T14:46:35.753Z,30.02
2023-09-08T14:51:37.867Z,30.05
2023-09-08T14:56:39.934Z,29.90
2023-09-08T15:01:44.397Z,29.89
2023-09-08T15:06:46.821Z,29.87
2023-09-08T15:11:49.052Z,29.81
2023-09-08T15:16:51.239Z,29.90
2023-09-08T15:21:53.388Z,29.76
2023-09-08T15:26:55.567Z,29.63
2023-09-08T15:31:58.896Z,29.74
2023-09-08T15:37:01.614Z,29.70
2023-09-08T15:42:05.247Z,29.85
2023-09-08T15:47:07.421Z,29.82
2023-09-08T15:52:16.634Z,29.61
2023-09-08T15:57:19.262Z,29.58
2023-09-08T16:02:21.395Z,29.46
2023-09-08T16:07:25.154Z,29.32
2023-09-08T16:12:27.554Z,29.29
2023-09-08T16:17:29.842Z,29.07
2023-09-08T16:22:32.031Z,28.97
2023-09-08T16:28:24.967Z,28.87
2023-09-08T16:33:27.094Z,28.74
2023-09-08T16:38:29.271Z,28.67
2023-09-08T16:43:31.631Z,28.68
2023-09-08T16:48:33.902Z,28.98
2023-09-08T16:53:36.180Z,28.85
2023-09-08T16:58:38.556Z,28.46
2023-09-08T17:03:41.154Z,28.03
2023-09-08T17:08:43.765Z,27.69
2023-09-08T17:13:45.851Z,27.42
2023-09-08T17:18:48.075Z,27.12
2023-09-08T17:23:50.411Z,26.81
2023-09-08T17:28:53.133Z,26.57
2023-09-08T17:33:55.198Z,26.27
2023-09-08T17:39:06.357Z,25.93
2023-09-08T17:44:08.542Z,25.58
2023-09-08T17:49:10.913Z,25.17
2023-09-08T17:54:13.227Z,24.73
2023-09-08T17:59:15.455Z,24.33
2023-09-08T18:04:17.740Z,24.01
2023-09-08T18:09:20.083Z,23.64
2023-09-08T18:14:22.500Z,23.21
2023-09-08T18:19:24.584Z,22.96
2023-09-08T18:24:26.907Z,22.75
2023-09-08T18:29:29.921Z,22.57
2023-09-08T18:34:31.975Z,22.40
2023-09-08T18:39:34.535Z,22.26
2023-09-08T18:44:43.389Z,22.12
2023-09-08T18:49:45.738Z,21.93
2023-09-08T18:54:48.509Z,21.79
2023-09-08T18:59:51.539Z,21.67
2023-09-08T19:04:53.817Z,21.50
2023-09-08T19:09:56.506Z,21.29
2023-09-08T19:14:59.014Z,21.16
2023-09-08T19:20:01.449Z,20.75
2023-09-08T19:25:03.829Z,20.50
2023-09-08T19:30:12.035Z,20.51
2023-09-08T19:35:14.196Z,20.39
2023-09-08T19:40:16.546Z,20.21
2023-09-08T19:45:18.990Z,20.09
2023-09-08T19:50:21.401Z,20.00
2023-09-08T19:55:24.023Z,19.86
2023-09-08T20:00:26.206Z,19.76
2023-09-08T20:05:28.995Z,19.63
2023-09-08T20:10:31.141Z,19.39
2023-09-08T20:15:36.528Z,19.30
2023-09-08T20:20:38.607Z,19.17
2023-09-08T20:25:40.926Z,19.05
2023-09-08T20:30:43.094Z,18.87
2023-09-08T20:35:45.613Z,18.81
2023-09-08T20:41:13.963Z,18.76
2023-09-08T20:46:16.258Z,18.57
2023-09-08T20:51:21.108Z,18.56
2023-09-08T20:56:23.236Z,18.38
2023-09-08T21:01:25.354Z,18.21
2023-09-08T21:06:27.814Z,18.24
2023-09-08T21:11:30.028Z,18.18
2023-09-08T21:16:32.138Z,18.13
2023-09-08T21:21:34.396Z,18.05
2023-09-08T21:26:36.576Z,17.97
2023-09-08T21:31:38.725Z,17.99
2023-09-08T21:36:41.164Z,17.95
2023-09-08T21:41:43.287Z,17.74
2023-09-08T21:46:45.371Z,17.67
2023-09-08T21:51:48.872Z,17.66
2023-09-08T21:56:51.879Z,17.69
2023-09-08T22:01:54.227Z,17.64
2023-09-08T22:06:56.836Z,17.52
2023-09-08T22:11:58.963Z,17.38
2023-09-08T22:17:01.046Z,17.33
2023-09-08T22:22:03.456Z,17.36
2023-09-08T22:27:05.784Z,17.31
2023-09-08T22:32:16.633Z,17.17
2023-09-08T22:37:18.841Z,17.06
2023-09-08T22:42:20.962Z,17.03
2023-09-08T22:47:23.062Z,16.97
2023-09-08T22:52:25.291Z,16.87
2023-09-08T22:57:27.560Z,16.79
2023-09-08T23:02:30.527Z,16.63
2023-09-08T23:07:32.731Z,16.58
2023-09-08T23:12:34.937Z,16.58
2023-09-08T23:17:37.193Z,16.57
2023-09-08T23:22:39.490Z,16.59
2023-09-08T23:27:41.658Z,16.55
2023-09-08T23:32:45.977Z,16.42
2023-09-08T23:37:49.015Z,16.30
2023-09-08T23:42:51.192Z,16.23
2023-09-08T23:47:53.969Z,16.19
2023-09-08T23:52:56.107Z,16.18
2023-09-08T23:57:58.215Z,16.10
